sensor_id;sensor_type;location;lat;lon;timestamp;P1;durP1;ratioP1;P2;durP2;ratioP2
63801;SDS011;49949;43.060;25.624;2022-08-20T00:00:24;12.45;;;8.80;;
63801;SDS011;49949;43.060;25.624;2022-08-20T00:02:53;11.45;;;8.55;;
63801;SDS011;49949;43.060;25.624;2022-08-20T00:05:32;9.93;;;8.18;;
63801;SDS011;49949;43.060;25.624;2022-08-20T00:08:00;11.60;;;8.35;;
63801;SDS011;49949;43.060;25.624;2022-08-20T00:10:28;13.75;;;9.07;;
63801;SDS011;49949;43.060;25.624;2022-08-20T00:12:55;11.07;;;8.18;;
63801;SDS011;49949;43.060;25.624;2022-08-20T00:15:23;13.60;;;8.20;;
63801;SDS011;49949;43.060;25.624;2022-08-20T00:17:52;13.20;;;9.15;;
63801;SDS011;49949;43.060;25.624;2022-08-20T00:20:20;14.40;;;9.07;;
63801;SDS011;49949;43.060;25.624;2022-08-20T00:22:48;14.45;;;9.70;;
63801;SDS011;49949;43.060;25.624;2022-08-20T00:25:15;13.85;;;8.93;;
63801;SDS011;49949;43.060;25.624;2022-08-20T00:27:41;9.70;;;7.97;;
63801;SDS011;49949;43.060;25.624;2022-08-20T00:30:09;14.85;;;8.52;;
63801;SDS011;49949;43.060;25.624;2022-08-20T00:32:40;10.10;;;8.18;;
63801;SDS011;49949;43.060;25.624;2022-08-20T00:35:11;13.90;;;8.52;;
63801;SDS011;49949;43.060;25.624;2022-08-20T00:37:38;13.98;;;10.05;;
63801;SDS011;49949;43.060;25.624;2022-08-20T00:40:05;13.50;;;9.45;;
63801;SDS011;49949;43.060;25.624;2022-08-20T00:42:38;18.73;;;9.75;;
63801;SDS011;49949;43.060;25.624;2022-08-20T00:45:09;14.88;;;9.55;;
63801;SDS011;49949;43.060;25.624;2022-08-20T00:47:36;17.38;;;9.43;;
63801;SDS011;49949;43.060;25.624;2022-08-20T00:50:09;14.27;;;10.07;;
63801;SDS011;49949;43.060;25.624;2022-08-20T00:52:38;23.40;;;9.98;;
63801;SDS011;49949;43.060;25.624;2022-08-20T00:55:07;12.93;;;9.93;;
63801;SDS011;49949;43.060;25.624;2022-08-20T00:57:39;16.65;;;10.27;;
63801;SDS011;49949;43.060;25.624;2022-08-20T01:00:12;18.30;;;10.15;;
63801;SDS011;49949;43.060;25.624;2022-08-20T01:02:43;19.90;;;9.55;;
63801;SDS011;49949;43.060;25.624;2022-08-20T01:05:10;16.13;;;10.10;;
63801;SDS011;49949;43.060;25.624;2022-08-20T01:07:36;12.95;;;9.60;;
63801;SDS011;49949;43.060;25.624;2022-08-20T01:10:07;18.15;;;10.00;;
63801;SDS011;49949;43.060;25.624;2022-08-20T01:12:43;16.65;;;10.30;;
63801;SDS011;49949;43.060;25.624;2022-08-20T01:15:12;23.90;;;12.32;;
63801;SDS011;49949;43.060;25.624;2022-08-20T01:17:42;34.30;;;11.13;;
63801;SDS011;49949;43.060;25.624;2022-08-20T01:20:18;14.88;;;10.73;;
63801;SDS011;49949;43.060;25.624;2022-08-20T01:28:24;15.30;;;10.15;;
63801;SDS011;49949;43.060;25.624;2022-08-20T01:30:52;14.57;;;9.93;;
63801;SDS011;49949;43.060;25.624;2022-08-20T01:33:19;12.98;;;9.85;;
63801;SDS011;49949;43.060;25.624;2022-08-20T01:35:46;18.33;;;10.52;;
63801;SDS011;49949;43.060;25.624;2022-08-20T01:38:13;19.10;;;10.50;;
63801;SDS011;49949;43.060;25.624;2022-08-20T01:43:34;14.20;;;10.10;;
63801;SDS011;49949;43.060;25.624;2022-08-20T01:46:01;18.27;;;9.90;;
63801;SDS011;49949;43.060;25.624;2022-08-20T01:48:26;13.48;;;9.55;;
63801;SDS011;49949;43.060;25.624;2022-08-20T01:51:04;13.73;;;9.48;;
63801;SDS011;49949;43.060;25.624;2022-08-20T01:53:37;12.88;;;9.23;;
63801;SDS011;49949;43.060;25.624;2022-08-20T01:56:06;20.60;;;9.18;;
63801;SDS011;49949;43.060;25.624;2022-08-20T01:58:35;16.02;;;10.55;;
63801;SDS011;49949;43.060;25.624;2022-08-20T02:01:04;15.65;;;10.00;;
63801;SDS011;49949;43.060;25.624;2022-08-20T02:03:30;19.55;;;11.00;;
63801;SDS011;49949;43.060;25.624;2022-08-20T02:05:59;18.02;;;10.07;;
63801;SDS011;49949;43.060;25.624;2022-08-20T02:08:26;13.30;;;10.75;;
63801;SDS011;49949;43.060;25.624;2022-08-20T02:10:51;14.50;;;10.15;;
63801;SDS011;49949;43.060;25.624;2022-08-20T02:13:19;19.40;;;11.15;;
63801;SDS011;49949;43.060;25.624;2022-08-20T02:15:46;12.32;;;10.45;;
63801;SDS011;49949;43.060;25.624;2022-08-20T02:18:12;14.65;;;10.80;;
63801;SDS011;49949;43.060;25.624;2022-08-20T02:20:40;16.25;;;11.27;;
63801;SDS011;49949;43.060;25.624;2022-08-20T02:23:07;24.92;;;12.02;;
63801;SDS011;49949;43.060;25.624;2022-08-20T02:25:34;23.33;;;11.25;;
63801;SDS011;49949;43.060;25.624;2022-08-20T02:28:04;16.92;;;10.05;;
63801;SDS011;49949;43.060;25.624;2022-08-20T02:30:35;15.77;;;10.70;;
63801;SDS011;49949;43.060;25.624;2022-08-20T02:33:06;22.13;;;11.23;;
63801;SDS011;49949;43.060;25.624;2022-08-20T02:35:34;30.90;;;11.38;;
63801;SDS011;49949;43.060;25.624;2022-08-20T02:38:00;22.00;;;10.85;;
63801;SDS011;49949;43.060;25.624;2022-08-20T02:40:27;23.92;;;10.95;;
63801;SDS011;49949;43.060;25.624;2022-08-20T02:42:54;17.60;;;11.20;;
63801;SDS011;49949;43.060;25.624;2022-08-20T02:45:20;22.02;;;12.65;;
63801;SDS011;49949;43.060;25.624;2022-08-20T02:47:46;27.83;;;15.05;;
63801;SDS011;49949;43.060;25.624;2022-08-20T02:50:14;27.60;;;13.52;;
63801;SDS011;49949;43.060;25.624;2022-08-20T02:52:42;17.65;;;10.40;;
63801;SDS011;49949;43.060;25.624;2022-08-20T02:55:08;14.80;;;10.65;;
63801;SDS011;49949;43.060;25.624;2022-08-20T02:57:35;19.27;;;11.40;;
63801;SDS011;49949;43.060;25.624;2022-08-20T03:00:03;21.17;;;10.75;;
63801;SDS011;49949;43.060;25.624;2022-08-20T03:02:37;38.65;;;11.73;;
63801;SDS011;49949;43.060;25.624;2022-08-20T03:05:04;22.55;;;12.48;;
63801;SDS011;49949;43.060;25.624;2022-08-20T03:07:30;19.35;;;11.15;;
63801;SDS011;49949;43.060;25.624;2022-08-20T03:09:57;14.70;;;11.70;;
63801;SDS011;49949;43.060;25.624;2022-08-20T03:12:23;20.45;;;11.02;;
63801;SDS011;49949;43.060;25.624;2022-08-20T03:14:49;18.55;;;9.95;;
63801;SDS011;49949;43.060;25.624;2022-08-20T03:17:14;19.25;;;11.57;;
63801;SDS011;49949;43.060;25.624;2022-08-20T03:19:40;17.63;;;12.60;;
63801;SDS011;49949;43.060;25.624;2022-08-20T03:22:06;17.48;;;12.70;;
63801;SDS011;49949;43.060;25.624;2022-08-20T03:24:32;31.55;;;14.80;;
63801;SDS011;49949;43.060;25.624;2022-08-20T03:26:57;34.63;;;18.88;;
63801;SDS011;49949;43.060;25.624;2022-08-20T03:29:23;24.10;;;15.15;;
63801;SDS011;49949;43.060;25.624;2022-08-20T03:31:49;21.45;;;12.93;;
63801;SDS011;49949;43.060;25.624;2022-08-20T03:34:14;18.92;;;12.50;;
63801;SDS011;49949;43.060;25.624;2022-08-20T03:36:40;21.65;;;14.95;;
63801;SDS011;49949;43.060;25.624;2022-08-20T03:39:07;19.40;;;13.88;;
63801;SDS011;49949;43.060;25.624;2022-08-20T03:41:37;24.55;;;14.27;;
63801;SDS011;49949;43.060;25.624;2022-08-20T03:44:03;20.40;;;14.52;;
63801;SDS011;49949;43.060;25.624;2022-08-20T03:46:30;21.23;;;12.90;;
63801;SDS011;49949;43.060;25.624;2022-08-20T03:48:56;24.70;;;14.00;;
63801;SDS011;49949;43.060;25.624;2022-08-20T03:51:22;25.58;;;14.82;;
63801;SDS011;49949;43.060;25.624;2022-08-20T03:53:48;24.13;;;15.60;;
63801;SDS011;49949;43.060;25.624;2022-08-20T03:56:14;30.25;;;18.33;;
63801;SDS011;49949;43.060;25.624;2022-08-20T03:58:41;21.65;;;14.68;;
63801;SDS011;49949;43.060;25.624;2022-08-20T04:01:07;26.80;;;16.55;;
63801;SDS011;49949;43.060;25.624;2022-08-20T04:03:32;34.25;;;14.23;;
63801;SDS011;49949;43.060;25.624;2022-08-20T04:05:59;24.58;;;14.15;;
63801;SDS011;49949;43.060;25.624;2022-08-20T04:08:25;30.70;;;13.13;;
63801;SDS011;49949;43.060;25.624;2022-08-20T04:10:53;23.30;;;13.35;;
63801;SDS011;49949;43.060;25.624;2022-08-20T04:13:22;27.20;;;14.30;;
63801;SDS011;49949;43.060;25.624;2022-08-20T04:15:48;27.63;;;13.82;;
63801;SDS011;49949;43.060;25.624;2022-08-20T04:18:15;20.60;;;12.75;;
63801;SDS011;49949;43.060;25.624;2022-08-20T04:20:47;19.92;;;11.82;;
63801;SDS011;49949;43.060;25.624;2022-08-20T04:23:12;19.70;;;10.63;;
63801;SDS011;49949;43.060;25.624;2022-08-20T04:25:39;18.25;;;9.70;;
63801;SDS011;49949;43.060;25.624;2022-08-20T04:28:06;27.10;;;9.93;;
63801;SDS011;49949;43.060;25.624;2022-08-20T04:30:35;38.55;;;10.13;;
63801;SDS011;49949;43.060;25.624;2022-08-20T04:33:02;18.00;;;9.80;;
63801;SDS011;49949;43.060;25.624;2022-08-20T04:35:28;15.65;;;10.10;;
63801;SDS011;49949;43.060;25.624;2022-08-20T04:38:04;19.23;;;11.48;;
63801;SDS011;49949;43.060;25.624;2022-08-20T04:40:32;18.15;;;10.73;;
63801;SDS011;49949;43.060;25.624;2022-08-20T04:43:17;20.05;;;11.27;;
63801;SDS011;49949;43.060;25.624;2022-08-20T04:45:47;19.73;;;11.45;;
63801;SDS011;49949;43.060;25.624;2022-08-20T04:48:13;22.80;;;12.55;;
63801;SDS011;49949;43.060;25.624;2022-08-20T04:50:41;26.60;;;11.95;;
63801;SDS011;49949;43.060;25.624;2022-08-20T04:53:09;23.00;;;12.27;;
63801;SDS011;49949;43.060;25.624;2022-08-20T04:55:37;25.60;;;11.80;;
63801;SDS011;49949;43.060;25.624;2022-08-20T04:58:07;22.73;;;11.73;;
63801;SDS011;49949;43.060;25.624;2022-08-20T05:00:49;26.20;;;12.80;;
63801;SDS011;49949;43.060;25.624;2022-08-20T05:03:17;34.33;;;15.07;;
63801;SDS011;49949;43.060;25.624;2022-08-20T05:05:43;29.67;;;17.17;;
63801;SDS011;49949;43.060;25.624;2022-08-20T05:08:10;29.27;;;17.73;;
63801;SDS011;49949;43.060;25.624;2022-08-20T05:10:37;31.67;;;16.17;;
63801;SDS011;49949;43.060;25.624;2022-08-20T05:13:04;26.13;;;13.20;;
63801;SDS011;49949;43.060;25.624;2022-08-20T05:15:31;39.13;;;17.40;;
63801;SDS011;49949;43.060;25.624;2022-08-20T05:17:58;27.92;;;16.75;;
63801;SDS011;49949;43.060;25.624;2022-08-20T05:20:25;25.52;;;13.02;;
63801;SDS011;49949;43.060;25.624;2022-08-20T05:22:56;26.13;;;11.90;;
63801;SDS011;49949;43.060;25.624;2022-08-20T05:25:23;25.75;;;11.32;;
63801;SDS011;49949;43.060;25.624;2022-08-20T05:28:00;80.88;;;13.98;;
63801;SDS011;49949;43.060;25.624;2022-08-20T05:30:33;21.20;;;11.93;;
63801;SDS011;49949;43.060;25.624;2022-08-20T05:33:04;23.05;;;12.15;;
63801;SDS011;49949;43.060;25.624;2022-08-20T05:35:31;26.85;;;12.98;;
63801;SDS011;49949;43.060;25.624;2022-08-20T05:37:58;38.83;;;14.48;;
63801;SDS011;49949;43.060;25.624;2022-08-20T05:40:25;35.88;;;13.55;;
63801;SDS011;49949;43.060;25.624;2022-08-20T05:42:52;27.50;;;12.15;;
63801;SDS011;49949;43.060;25.624;2022-08-20T05:45:19;25.00;;;10.98;;
63801;SDS011;49949;43.060;25.624;2022-08-20T05:47:46;24.75;;;10.02;;
63801;SDS011;49949;43.060;25.624;2022-08-20T05:50:13;20.40;;;9.63;;
63801;SDS011;49949;43.060;25.624;2022-08-20T05:52:40;19.83;;;10.05;;
63801;SDS011;49949;43.060;25.624;2022-08-20T05:55:07;21.30;;;9.60;;
63801;SDS011;49949;43.060;25.624;2022-08-20T05:57:35;14.20;;;8.80;;
63801;SDS011;49949;43.060;25.624;2022-08-20T06:00:01;12.13;;;9.30;;
63801;SDS011;49949;43.060;25.624;2022-08-20T06:02:30;18.10;;;9.40;;
63801;SDS011;49949;43.060;25.624;2022-08-20T06:05:14;22.90;;;8.65;;
63801;SDS011;49949;43.060;25.624;2022-08-20T06:07:40;16.38;;;8.32;;
63801;SDS011;49949;43.060;25.624;2022-08-20T06:10:07;20.40;;;8.30;;
63801;SDS011;49949;43.060;25.624;2022-08-20T06:12:34;15.90;;;8.77;;
63801;SDS011;49949;43.060;25.624;2022-08-20T06:15:01;23.50;;;9.00;;
63801;SDS011;49949;43.060;25.624;2022-08-20T06:17:28;20.02;;;8.77;;
63801;SDS011;49949;43.060;25.624;2022-08-20T06:19:53;19.15;;;8.85;;
63801;SDS011;49949;43.060;25.624;2022-08-20T06:22:20;18.17;;;7.60;;
63801;SDS011;49949;43.060;25.624;2022-08-20T06:24:45;12.93;;;7.95;;
63801;SDS011;49949;43.060;25.624;2022-08-20T06:27:12;14.70;;;7.00;;
63801;SDS011;49949;43.060;25.624;2022-08-20T06:29:39;16.90;;;7.03;;
63801;SDS011;49949;43.060;25.624;2022-08-20T06:32:05;16.95;;;7.45;;
63801;SDS011;49949;43.060;25.624;2022-08-20T06:34:31;17.42;;;8.23;;
63801;SDS011;49949;43.060;25.624;2022-08-20T06:36:57;17.75;;;7.63;;
63801;SDS011;49949;43.060;25.624;2022-08-20T06:39:24;34.58;;;10.60;;
63801;SDS011;49949;43.060;25.624;2022-08-20T06:41:51;57.83;;;11.80;;
63801;SDS011;49949;43.060;25.624;2022-08-20T06:44:18;72.50;;;12.40;;
63801;SDS011;49949;43.060;25.624;2022-08-20T06:46:44;27.13;;;9.90;;
63801;SDS011;49949;43.060;25.624;2022-08-20T06:49:10;24.10;;;9.38;;
63801;SDS011;49949;43.060;25.624;2022-08-20T06:51:36;36.35;;;9.15;;
63801;SDS011;49949;43.060;25.624;2022-08-20T06:54:03;19.27;;;8.55;;
63801;SDS011;49949;43.060;25.624;2022-08-20T06:56:30;19.52;;;7.53;;
63801;SDS011;49949;43.060;25.624;2022-08-20T06:58:56;18.02;;;7.10;;
63801;SDS011;49949;43.060;25.624;2022-08-20T07:01:21;13.77;;;6.30;;
63801;SDS011;49949;43.060;25.624;2022-08-20T07:03:48;20.83;;;6.95;;
63801;SDS011;49949;43.060;25.624;2022-08-20T07:06:14;12.57;;;6.03;;
63801;SDS011;49949;43.060;25.624;2022-08-20T07:08:42;14.90;;;5.20;;
63801;SDS011;49949;43.060;25.624;2022-08-20T07:11:09;11.48;;;5.00;;
63801;SDS011;49949;43.060;25.624;2022-08-20T07:13:35;11.88;;;4.15;;
63801;SDS011;49949;43.060;25.624;2022-08-20T07:16:05;16.30;;;4.93;;
63801;SDS011;49949;43.060;25.624;2022-08-20T07:18:31;10.68;;;4.30;;
63801;SDS011;49949;43.060;25.624;2022-08-20T07:20:57;14.23;;;4.30;;
63801;SDS011;49949;43.060;25.624;2022-08-20T07:23:23;7.53;;;3.65;;
63801;SDS011;49949;43.060;25.624;2022-08-20T07:25:50;11.63;;;4.28;;
63801;SDS011;49949;43.060;25.624;2022-08-20T07:28:20;11.25;;;4.40;;
63801;SDS011;49949;43.060;25.624;2022-08-20T07:30:48;10.50;;;4.05;;
63801;SDS011;49949;43.060;25.624;2022-08-20T07:33:34;9.10;;;4.10;;
63801;SDS011;49949;43.060;25.624;2022-08-20T07:36:03;9.00;;;3.70;;
63801;SDS011;49949;43.060;25.624;2022-08-20T07:38:29;9.13;;;3.65;;
63801;SDS011;49949;43.060;25.624;2022-08-20T07:40:58;14.00;;;4.07;;
63801;SDS011;49949;43.060;25.624;2022-08-20T07:43:29;9.73;;;4.13;;
63801;SDS011;49949;43.060;25.624;2022-08-20T07:45:57;7.75;;;4.00;;
63801;SDS011;49949;43.060;25.624;2022-08-20T07:48:31;11.00;;;3.95;;
63801;SDS011;49949;43.060;25.624;2022-08-20T07:50:58;6.32;;;3.85;;
63801;SDS011;49949;43.060;25.624;2022-08-20T07:53:25;12.25;;;4.07;;
63801;SDS011;49949;43.060;25.624;2022-08-20T07:55:52;10.13;;;4.53;;
63801;SDS011;49949;43.060;25.624;2022-08-20T07:58:19;24.20;;;4.30;;
63801;SDS011;49949;43.060;25.624;2022-08-20T08:00:46;10.18;;;4.10;;
63801;SDS011;49949;43.060;25.624;2022-08-20T08:03:12;11.30;;;4.28;;
63801;SDS011;49949;43.060;25.624;2022-08-20T08:05:38;6.97;;;3.97;;
63801;SDS011;49949;43.060;25.624;2022-08-20T08:08:08;11.73;;;3.55;;
63801;SDS011;49949;43.060;25.624;2022-08-20T08:10:36;8.75;;;3.67;;
63801;SDS011;49949;43.060;25.624;2022-08-20T08:13:03;10.90;;;3.20;;
63801;SDS011;49949;43.060;25.624;2022-08-20T08:15:32;10.20;;;3.45;;
63801;SDS011;49949;43.060;25.624;2022-08-20T08:18:04;12.35;;;4.35;;
63801;SDS011;49949;43.060;25.624;2022-08-20T08:20:34;20.98;;;3.67;;
63801;SDS011;49949;43.060;25.624;2022-08-20T08:23:05;12.13;;;3.80;;
63801;SDS011;49949;43.060;25.624;2022-08-20T08:25:32;9.07;;;3.97;;
63801;SDS011;49949;43.060;25.624;2022-08-20T08:27:58;10.80;;;3.72;;
63801;SDS011;49949;43.060;25.624;2022-08-20T08:30:24;9.45;;;4.40;;
63801;SDS011;49949;43.060;25.624;2022-08-20T08:32:52;6.55;;;4.30;;
63801;SDS011;49949;43.060;25.624;2022-08-20T08:35:37;14.27;;;4.57;;
63801;SDS011;49949;43.060;25.624;2022-08-20T08:38:04;13.48;;;3.90;;
63801;SDS011;49949;43.060;25.624;2022-08-20T08:40:30;8.23;;;3.92;;
63801;SDS011;49949;43.060;25.624;2022-08-20T08:42:57;8.68;;;4.47;;
63801;SDS011;49949;43.060;25.624;2022-08-20T08:45:49;13.48;;;4.15;;
63801;SDS011;49949;43.060;25.624;2022-08-20T08:48:30;13.27;;;4.05;;
63801;SDS011;49949;43.060;25.624;2022-08-20T08:51:01;12.30;;;3.85;;
63801;SDS011;49949;43.060;25.624;2022-08-20T08:53:36;6.90;;;3.92;;
63801;SDS011;49949;43.060;25.624;2022-08-20T08:56:06;13.02;;;3.97;;
63801;SDS011;49949;43.060;25.624;2022-08-20T08:58:33;12.35;;;3.72;;
63801;SDS011;49949;43.060;25.624;2022-08-20T09:01:12;11.82;;;4.15;;
63801;SDS011;49949;43.060;25.624;2022-08-20T09:03:41;10.38;;;4.03;;
63801;SDS011;49949;43.060;25.624;2022-08-20T09:06:14;12.73;;;4.25;;
63801;SDS011;49949;43.060;25.624;2022-08-20T09:11:18;5.50;;;4.00;;
63801;SDS011;49949;43.060;25.624;2022-08-20T09:13:45;6.38;;;4.32;;
63801;SDS011;49949;43.060;25.624;2022-08-20T09:16:12;7.00;;;4.65;;
63801;SDS011;49949;43.060;25.624;2022-08-20T09:18:38;9.15;;;4.28;;
63801;SDS011;49949;43.060;25.624;2022-08-20T09:21:04;8.25;;;4.18;;
63801;SDS011;49949;43.060;25.624;2022-08-20T09:23:30;19.40;;;4.57;;
63801;SDS011;49949;43.060;25.624;2022-08-20T09:25:56;11.35;;;4.45;;
63801;SDS011;49949;43.060;25.624;2022-08-20T09:28:22;5.88;;;3.70;;
63801;SDS011;49949;43.060;25.624;2022-08-20T09:30:48;8.88;;;3.90;;
63801;SDS011;49949;43.060;25.624;2022-08-20T09:33:14;7.63;;;4.13;;
63801;SDS011;49949;43.060;25.624;2022-08-20T09:35:40;10.23;;;4.35;;
63801;SDS011;49949;43.060;25.624;2022-08-20T09:38:06;20.52;;;4.57;;
63801;SDS011;49949;43.060;25.624;2022-08-20T09:40:32;7.30;;;4.00;;
63801;SDS011;49949;43.060;25.624;2022-08-20T09:42:58;15.30;;;4.65;;
63801;SDS011;49949;43.060;25.624;2022-08-20T09:45:24;10.52;;;4.45;;
63801;SDS011;49949;43.060;25.624;2022-08-20T09:47:50;3.95;;;3.55;;
63801;SDS011;49949;43.060;25.624;2022-08-20T09:50:16;6.63;;;4.15;;
63801;SDS011;49949;43.060;25.624;2022-08-20T09:52:43;8.75;;;4.13;;
63801;SDS011;49949;43.060;25.624;2022-08-20T09:55:20;5.40;;;3.38;;
63801;SDS011;49949;43.060;25.624;2022-08-20T09:57:50;6.30;;;4.05;;
63801;SDS011;49949;43.060;25.624;2022-08-20T10:00:17;10.32;;;4.22;;
63801;SDS011;49949;43.060;25.624;2022-08-20T10:02:43;11.75;;;3.85;;
63801;SDS011;49949;43.060;25.624;2022-08-20T10:05:09;5.93;;;4.20;;
63801;SDS011;49949;43.060;25.624;2022-08-20T10:07:39;9.50;;;3.75;;
63801;SDS011;49949;43.060;25.624;2022-08-20T10:10:06;9.30;;;4.30;;
63801;SDS011;49949;43.060;25.624;2022-08-20T10:12:34;7.20;;;3.88;;
63801;SDS011;49949;43.060;25.624;2022-08-20T10:14:59;9.82;;;4.05;;
63801;SDS011;49949;43.060;25.624;2022-08-20T10:17:25;18.20;;;5.15;;
63801;SDS011;49949;43.060;25.624;2022-08-20T10:19:51;9.93;;;4.22;;
63801;SDS011;49949;43.060;25.624;2022-08-20T10:22:17;19.77;;;4.85;;
63801;SDS011;49949;43.060;25.624;2022-08-20T10:24:42;11.65;;;3.97;;
63801;SDS011;49949;43.060;25.624;2022-08-20T10:27:08;8.63;;;4.32;;
63801;SDS011;49949;43.060;25.624;2022-08-20T10:29:34;7.68;;;4.22;;
63801;SDS011;49949;43.060;25.624;2022-08-20T10:32:07;11.82;;;4.03;;
63801;SDS011;49949;43.060;25.624;2022-08-20T10:34:36;14.30;;;4.40;;
63801;SDS011;49949;43.060;25.624;2022-08-20T10:37:03;7.20;;;4.03;;
63801;SDS011;49949;43.060;25.624;2022-08-20T10:39:29;12.40;;;4.47;;
63801;SDS011;49949;43.060;25.624;2022-08-20T10:41:54;8.43;;;4.20;;
63801;SDS011;49949;43.060;25.624;2022-08-20T10:44:20;14.18;;;4.50;;
63801;SDS011;49949;43.060;25.624;2022-08-20T10:46:46;12.75;;;4.00;;
63801;SDS011;49949;43.060;25.624;2022-08-20T10:49:11;5.80;;;3.92;;
63801;SDS011;49949;43.060;25.624;2022-08-20T10:51:37;6.57;;;4.63;;
63801;SDS011;49949;43.060;25.624;2022-08-20T10:54:03;6.18;;;4.68;;
63801;SDS011;49949;43.060;25.624;2022-08-20T10:56:28;7.53;;;3.95;;
63801;SDS011;49949;43.060;25.624;2022-08-20T10:58:54;8.90;;;4.32;;
63801;SDS011;49949;43.060;25.624;2022-08-20T11:01:20;10.07;;;4.40;;
63801;SDS011;49949;43.060;25.624;2022-08-20T11:03:45;10.68;;;4.80;;
63801;SDS011;49949;43.060;25.624;2022-08-20T11:06:11;6.60;;;3.90;;
63801;SDS011;49949;43.060;25.624;2022-08-20T11:08:37;12.02;;;4.35;;
63801;SDS011;49949;43.060;25.624;2022-08-20T11:11:04;11.65;;;4.90;;
63801;SDS011;49949;43.060;25.624;2022-08-20T11:13:30;9.77;;;4.43;;
63801;SDS011;49949;43.060;25.624;2022-08-20T11:15:57;8.00;;;3.95;;
63801;SDS011;49949;43.060;25.624;2022-08-20T11:18:23;5.35;;;4.25;;
63801;SDS011;49949;43.060;25.624;2022-08-20T11:20:48;6.95;;;4.30;;
63801;SDS011;49949;43.060;25.624;2022-08-20T11:23:14;8.70;;;4.50;;
63801;SDS011;49949;43.060;25.624;2022-08-20T11:25:40;8.63;;;4.45;;
63801;SDS011;49949;43.060;25.624;2022-08-20T11:28:05;10.18;;;4.03;;
63801;SDS011;49949;43.060;25.624;2022-08-20T11:30:32;12.20;;;4.45;;
63801;SDS011;49949;43.060;25.624;2022-08-20T11:32:59;5.80;;;3.70;;
63801;SDS011;49949;43.060;25.624;2022-08-20T11:35:26;6.38;;;3.88;;
63801;SDS011;49949;43.060;25.624;2022-08-20T11:37:53;9.15;;;4.10;;
63801;SDS011;49949;43.060;25.624;2022-08-20T11:40:20;9.48;;;4.13;;
63801;SDS011;49949;43.060;25.624;2022-08-20T11:42:46;7.70;;;4.30;;
63801;SDS011;49949;43.060;25.624;2022-08-20T11:45:13;10.43;;;4.30;;
63801;SDS011;49949;43.060;25.624;2022-08-20T11:47:39;10.45;;;4.50;;
63801;SDS011;49949;43.060;25.624;2022-08-20T11:50:07;6.25;;;3.80;;
63801;SDS011;49949;43.060;25.624;2022-08-20T11:52:35;7.25;;;3.80;;
63801;SDS011;49949;43.060;25.624;2022-08-20T11:55:01;12.15;;;4.20;;
63801;SDS011;49949;43.060;25.624;2022-08-20T11:57:31;8.15;;;4.20;;
63801;SDS011;49949;43.060;25.624;2022-08-20T11:59:58;13.03;;;4.13;;
63801;SDS011;49949;43.060;25.624;2022-08-20T12:02:25;7.60;;;4.22;;
63801;SDS011;49949;43.060;25.624;2022-08-20T12:04:52;11.95;;;4.10;;
63801;SDS011;49949;43.060;25.624;2022-08-20T12:07:19;11.90;;;4.40;;
63801;SDS011;49949;43.060;25.624;2022-08-20T12:09:48;10.15;;;4.38;;
63801;SDS011;49949;43.060;25.624;2022-08-20T12:12:14;11.07;;;4.45;;
63801;SDS011;49949;43.060;25.624;2022-08-20T12:14:40;7.70;;;4.38;;
63801;SDS011;49949;43.060;25.624;2022-08-20T12:17:09;6.97;;;4.38;;
63801;SDS011;49949;43.060;25.624;2022-08-20T12:19:41;10.40;;;4.30;;
63801;SDS011;49949;43.060;25.624;2022-08-20T12:22:07;11.23;;;4.40;;
63801;SDS011;49949;43.060;25.624;2022-08-20T12:24:34;11.40;;;4.32;;
63801;SDS011;49949;43.060;25.624;2022-08-20T12:27:16;13.77;;;4.20;;
63801;SDS011;49949;43.060;25.624;2022-08-20T12:29:46;7.05;;;3.53;;
63801;SDS011;49949;43.060;25.624;2022-08-20T12:32:13;11.48;;;4.35;;
63801;SDS011;49949;43.060;25.624;2022-08-20T12:34:39;12.63;;;3.70;;
63801;SDS011;49949;43.060;25.624;2022-08-20T12:37:11;8.90;;;3.70;;
63801;SDS011;49949;43.060;25.624;2022-08-20T12:39:40;7.75;;;4.32;;
63801;SDS011;49949;43.060;25.624;2022-08-20T12:42:08;11.00;;;4.30;;
63801;SDS011;49949;43.060;25.624;2022-08-20T12:44:35;7.95;;;4.20;;
63801;SDS011;49949;43.060;25.624;2022-08-20T12:47:15;19.52;;;5.00;;
63801;SDS011;49949;43.060;25.624;2022-08-20T12:49:49;6.78;;;3.25;;
63801;SDS011;49949;43.060;25.624;2022-08-20T12:52:17;7.32;;;4.07;;
63801;SDS011;49949;43.060;25.624;2022-08-20T12:54:44;5.45;;;3.60;;
63801;SDS011;49949;43.060;25.624;2022-08-20T12:57:14;11.35;;;4.28;;
63801;SDS011;49949;43.060;25.624;2022-08-20T12:59:47;8.00;;;4.43;;
63801;SDS011;49949;43.060;25.624;2022-08-20T13:02:13;5.70;;;4.05;;
63801;SDS011;49949;43.060;25.624;2022-08-20T13:04:41;13.93;;;3.90;;
63801;SDS011;49949;43.060;25.624;2022-08-20T13:07:09;8.18;;;4.55;;
63801;SDS011;49949;43.060;25.624;2022-08-20T13:09:36;7.25;;;3.88;;
63801;SDS011;49949;43.060;25.624;2022-08-20T13:12:01;8.73;;;4.70;;
63801;SDS011;49949;43.060;25.624;2022-08-20T13:14:27;10.07;;;4.40;;
63801;SDS011;49949;43.060;25.624;2022-08-20T13:16:54;9.57;;;4.15;;
63801;SDS011;49949;43.060;25.624;2022-08-20T13:19:21;6.38;;;4.35;;
63801;SDS011;49949;43.060;25.624;2022-08-20T13:21:47;6.20;;;4.03;;
63801;SDS011;49949;43.060;25.624;2022-08-20T13:24:13;5.53;;;3.83;;
63801;SDS011;49949;43.060;25.624;2022-08-20T13:26:39;8.60;;;3.97;;
63801;SDS011;49949;43.060;25.624;2022-08-20T13:29:04;9.45;;;4.30;;
63801;SDS011;49949;43.060;25.624;2022-08-20T13:31:30;7.53;;;4.38;;
63801;SDS011;49949;43.060;25.624;2022-08-20T13:33:56;8.05;;;3.97;;
63801;SDS011;49949;43.060;25.624;2022-08-20T13:36:21;9.25;;;4.40;;
63801;SDS011;49949;43.060;25.624;2022-08-20T13:38:47;8.05;;;4.10;;
63801;SDS011;49949;43.060;25.624;2022-08-20T13:41:13;11.40;;;4.53;;
63801;SDS011;49949;43.060;25.624;2022-08-20T13:43:39;9.15;;;4.30;;
63801;SDS011;49949;43.060;25.624;2022-08-20T13:46:04;9.52;;;4.15;;
63801;SDS011;49949;43.060;25.624;2022-08-20T13:48:31;10.20;;;4.25;;
63801;SDS011;49949;43.060;25.624;2022-08-20T13:50:57;7.55;;;3.88;;
63801;SDS011;49949;43.060;25.624;2022-08-20T13:53:23;15.50;;;4.47;;
63801;SDS011;49949;43.060;25.624;2022-08-20T13:55:49;9.98;;;3.90;;
63801;SDS011;49949;43.060;25.624;2022-08-20T13:58:15;10.07;;;3.95;;
63801;SDS011;49949;43.060;25.624;2022-08-20T14:00:42;7.43;;;3.90;;
63801;SDS011;49949;43.060;25.624;2022-08-20T14:03:08;9.27;;;4.30;;
63801;SDS011;49949;43.060;25.624;2022-08-20T14:05:35;10.90;;;4.35;;
63801;SDS011;49949;43.060;25.624;2022-08-20T14:08:05;9.32;;;4.57;;
63801;SDS011;49949;43.060;25.624;2022-08-20T14:10:37;8.50;;;4.13;;
63801;SDS011;49949;43.060;25.624;2022-08-20T14:13:04;11.52;;;4.38;;
63801;SDS011;49949;43.060;25.624;2022-08-20T14:15:31;8.55;;;4.18;;
63801;SDS011;49949;43.060;25.624;2022-08-20T14:17:58;10.10;;;3.65;;
63801;SDS011;49949;43.060;25.624;2022-08-20T14:20:26;8.82;;;4.00;;
63801;SDS011;49949;43.060;25.624;2022-08-20T14:22:53;9.82;;;3.90;;
63801;SDS011;49949;43.060;25.624;2022-08-20T14:25:20;7.22;;;4.63;;
63801;SDS011;49949;43.060;25.624;2022-08-20T14:27:47;9.25;;;3.65;;
63801;SDS011;49949;43.060;25.624;2022-08-20T14:30:14;6.45;;;3.92;;
63801;SDS011;49949;43.060;25.624;2022-08-20T14:32:42;7.03;;;3.67;;
63801;SDS011;49949;43.060;25.624;2022-08-20T14:35:08;5.57;;;3.40;;